Time;durP1;ratioP1;P1;durP2;ratioP2;P2;SDS_P1;SDS_P2;PMS_P1;PMS_P2;Temp;Humidity;BMP_temperature;BMP_pressure;BME280_temperature;BME280_humidity;BME280_pressure;Samples;Min_cycle;Max_cycle;Signal;HPM_P1;HPM_P2
2023/05/05 00:02:24;;;;;;;1999.90;999.90;;;9.50;89.20;;;;;;5066870;28;20025;-73
2023/05/05 00:04:50;;;;;;;1999.90;999.90;;;9.50;89.70;;;;;;5036527;28;20394;-73
2023/05/05 00:07:16;;;;;;;1999.90;999.90;;;9.50;90.10;;;;;;5039882;28;20479;-73
2023/05/05 00:09:42;;;;;;;1999.90;999.90;;;9.50;90.50;;;;;;5073257;28;20036;-73
2023/05/05 00:12:08;;;;;;;1999.90;999.90;;;9.60;90.60;;;;;;5043270;28;20037;-74
2023/05/05 00:14:33;;;;;;;1999.90;999.90;;;9.70;90.50;;;;;;5051057;28;20039;-73
2023/05/05 00:16:59;;;;;;;1999.90;999.90;;;9.70;90.40;;;;;;5069612;28;20032;-73
2023/05/05 00:19:24;;;;;;;1999.90;999.90;;;9.80;90.40;;;;;;5065475;28;20116;-73
2023/05/05 00:21:51;;;;;;;1999.90;999.90;;;9.70;90.30;;;;;;5071078;28;20032;-74
2023/05/05 00:24:16;;;;;;;1999.90;999.90;;;9.70;90.30;;;;;;5073161;28;20037;-73
2023/05/05 00:26:42;;;;;;;1999.90;999.90;;;9.70;90.40;;;;;;5053388;28;20440;-73
2023/05/05 00:29:08;;;;;;;1999.90;999.90;;;9.60;90.30;;;;;;5058142;28;20040;-74
2023/05/05 00:31:33;;;;;;;1999.90;999.90;;;9.60;90.50;;;;;;5072045;28;20033;-73
2023/05/05 00:33:59;;;;;;;1999.90;999.90;;;9.50;90.70;;;;;;5047836;28;20085;-73
2023/05/05 00:36:24;;;;;;;1999.90;999.90;;;9.50;90.70;;;;;;5063983;28;20095;-73
2023/05/05 00:38:50;;;;;;;1999.90;999.90;;;9.60;90.80;;;;;;5067833;28;20170;-73
2023/05/05 00:41:16;;;;;;;1999.90;999.90;;;9.60;90.70;;;;;;5053288;28;20029;-73
2023/05/05 00:43:42;;;;;;;1999.90;999.90;;;9.60;90.70;;;;;;5073195;28;20033;-73
2023/05/05 00:46:26;;;;;;;1999.90;999.90;;;9.60;90.90;;;;;;5049742;28;20621;-74
2023/05/05 00:48:52;;;;;;;1999.90;999.90;;;9.60;90.80;;;;;;5054506;28;20085;-73
2023/05/05 00:51:19;;;;;;;1999.90;999.90;;;9.60;90.80;;;;;;5066761;28;20108;-73
2023/05/05 00:53:45;;;;;;;1999.90;999.90;;;9.70;90.70;;;;;;5036158;28;20039;-73
2023/05/05 00:56:11;;;;;;;1999.90;999.90;;;9.80;90.70;;;;;;5058173;28;20088;-73
2023/05/05 00:58:41;;;;;;;1999.90;999.90;;;9.80;90.70;;;;;;5076654;28;20442;-73
2023/05/05 01:01:07;;;;;;;1999.90;999.90;;;9.80;90.80;;;;;;5067109;28;20028;-73
2023/05/05 01:03:36;;;;;;;1999.90;999.90;;;9.80;90.60;;;;;;5074024;28;20064;-73
2023/05/05 01:06:14;;;;;;;1999.90;999.90;;;9.90;90.70;;;;;;5050295;28;20024;-73
2023/05/05 01:08:43;;;;;;;1999.90;999.90;;;9.90;90.70;;;;;;5074462;28;20040;-73
2023/05/05 01:11:38;;;;;;;1999.90;999.90;;;9.90;90.80;;;;;;5071242;28;20025;-73
2023/05/05 01:14:16;;;;;;;1999.90;999.90;;;9.90;90.80;;;;;;5032963;28;20135;-73
2023/05/05 01:16:56;;;;;;;1999.90;999.90;;;9.90;91.10;;;;;;5069041;28;20044;-73
2023/05/05 01:19:48;;;;;;;1999.90;999.90;;;9.80;91.00;;;;;;5052205;28;20039;-73
2023/05/05 01:22:17;;;;;;;1999.90;999.90;;;9.70;90.80;;;;;;5033239;28;20044;-73
2023/05/05 01:25:25;;;;;;;1999.90;999.90;;;9.60;90.80;;;;;;5055587;28;20055;-73
2023/05/05 01:28:20;;;;;;;1999.90;999.90;;;9.70;90.90;;;;;;5041179;28;20036;-73
2023/05/05 01:31:03;;;;;;;1999.90;999.90;;;9.80;90.90;;;;;;5069061;28;20110;-73
2023/05/05 01:33:42;;;;;;;1999.90;999.90;;;9.90;90.90;;;;;;5070050;28;20028;-73
2023/05/05 01:36:14;;;;;;;1999.90;999.90;;;9.90;90.90;;;;;;5062619;28;20036;-73
2023/05/05 01:38:43;;;;;;;1999.90;999.90;;;9.90;91.00;;;;;;5070846;28;20095;-73
2023/05/05 01:41:19;;;;;;;1999.90;999.90;;;9.80;91.10;;;;;;5044428;28;20037;-73
2023/05/05 01:43:49;;;;;;;1999.90;999.90;;;9.80;91.10;;;;;;5077224;28;20622;-73
2023/05/05 01:46:15;;;;;;;1999.90;999.90;;;9.80;91.40;;;;;;5051625;28;20501;-73
2023/05/05 01:48:42;;;;;;;1999.90;999.90;;;9.90;91.40;;;;;;5055681;28;20035;-73
2023/05/05 01:51:09;;;;;;;1999.90;999.90;;;9.90;91.20;;;;;;5067471;28;20036;-73
2023/05/05 01:53:35;;;;;;;1999.90;999.90;;;9.90;91.20;;;;;;5063138;28;20041;-73
2023/05/05 01:56:02;;;;;;;1999.90;999.90;;;9.90;91.20;;;;;;5046101;28;20104;-73
2023/05/05 01:58:31;;;;;;;1999.90;999.90;;;10.00;91.10;;;;;;5050837;28;20032;-73
2023/05/05 02:00:57;;;;;;;1999.90;999.90;;;10.10;91.10;;;;;;5071295;28;20047;-73
2023/05/05 02:03:26;;;;;;;1999.90;999.90;;;10.10;90.90;;;;;;5051618;28;20026;-73
2023/05/05 02:05:53;;;;;;;1999.90;999.90;;;10.10;90.80;;;;;;5064774;28;20033;-74
2023/05/05 02:08:20;;;;;;;1999.90;999.90;;;10.10;90.90;;;;;;5051133;28;20539;-73
2023/05/05 02:10:47;;;;;;;1999.90;999.90;;;10.10;90.90;;;;;;5066236;28;21446;-73
2023/05/05 02:13:14;;;;;;;1999.90;999.90;;;10.20;90.80;;;;;;5067195;28;20033;-74
2023/05/05 02:15:42;;;;;;;1999.90;999.90;;;10.30;90.80;;;;;;5041702;28;20039;-73
2023/05/05 02:18:09;;;;;;;1999.90;999.90;;;10.40;90.60;;;;;;5066882;28;20060;-73
2023/05/05 02:20:37;;;;;;;1999.90;999.90;;;10.30;90.80;;;;;;5031219;28;20489;-73
2023/05/05 02:23:05;;;;;;;1999.90;999.90;;;10.30;90.70;;;;;;5068713;28;20036;-73
2023/05/05 02:25:43;;;;;;;1999.90;999.90;;;10.10;90.70;;;;;;5042734;28;20041;-73
2023/05/05 02:28:15;;;;;;;1999.90;999.90;;;10.10;91.00;;;;;;5073956;28;20498;-73
2023/05/05 02:30:42;;;;;;;1999.90;999.90;;;10.00;91.10;;;;;;5065870;28;20033;-73
2023/05/05 02:33:15;;;;;;;1999.90;999.90;;;9.90;91.30;;;;;;5070288;28;20553;-73
2023/05/05 02:35:42;;;;;;;1999.90;999.90;;;9.80;91.40;;;;;;5066980;28;20032;-73
2023/05/05 02:38:16;;;;;;;1999.90;999.90;;;9.70;91.60;;;;;;5057687;28;20075;-74
2023/05/05 02:40:43;;;;;;;1999.90;999.90;;;9.60;91.80;;;;;;5070087;28;20029;-74
2023/05/05 02:43:13;;;;;;;1999.90;999.90;;;9.70;91.90;;;;;;5078622;28;20632;-73
2023/05/05 02:45:38;;;;;;;1999.90;999.90;;;9.70;92.00;;;;;;5072254;28;20036;-73
2023/05/05 02:48:04;;;;;;;1999.90;999.90;;;9.60;91.70;;;;;;5073778;28;20028;-73
2023/05/05 02:50:31;;;;;;;1999.90;999.90;;;9.50;91.90;;;;;;5055095;28;20029;-73
2023/05/05 02:52:58;;;;;;;1999.90;999.90;;;9.50;92.00;;;;;;5077250;28;20056;-73
2023/05/05 02:55:28;;;;;;;1999.90;999.90;;;9.40;92.00;;;;;;5065033;28;20056;-73
2023/05/05 02:58:09;;;;;;;1999.90;999.90;;;9.50;92.30;;;;;;5057655;28;20044;-73
2023/05/05 03:00:47;;;;;;;1999.90;999.90;;;9.60;92.30;;;;;;5069244;28;20112;-73
2023/05/05 03:03:35;;;;;;;1999.90;999.90;;;9.60;92.20;;;;;;5074692;28;20029;-73
2023/05/05 03:06:17;;;;;;;1999.90;999.90;;;9.70;92.10;;;;;;5070381;28;20021;-72
2023/05/05 03:09:03;;;;;;;1999.90;999.90;;;9.70;92.10;;;;;;5073187;28;20021;-74
2023/05/05 03:11:39;;;;;;;1999.90;999.90;;;9.80;91.90;;;;;;5067176;28;20029;-73
2023/05/05 03:14:10;;;;;;;1999.90;999.90;;;9.80;91.90;;;;;;5057407;28;20438;-73
2023/05/05 03:16:38;;;;;;;1999.90;999.90;;;9.90;91.80;;;;;;5051766;28;20039;-73
2023/05/05 03:19:05;;;;;;;1999.90;999.90;;;9.90;91.70;;;;;;5049317;28;20036;-72
2023/05/05 03:21:32;;;;;;;1999.90;999.90;;;9.90;91.60;;;;;;5072230;28;20083;-73
2023/05/05 03:23:58;;;;;;;1999.90;999.90;;;9.90;92.00;;;;;;5073417;28;20064;-72
2023/05/05 03:26:23;;;;;;;1999.90;999.90;;;9.80;91.70;;;;;;5068576;28;20078;-73
2023/05/05 03:28:50;;;;;;;1999.90;999.90;;;9.90;91.90;;;;;;5073502;28;20124;-73
2023/05/05 03:31:16;;;;;;;1999.90;999.90;;;9.80;91.80;;;;;;5057618;28;20680;-72
2023/05/05 03:33:42;;;;;;;1999.90;999.90;;;9.90;91.90;;;;;;5075819;28;20531;-73
2023/05/05 03:36:08;;;;;;;1999.90;999.90;;;9.90;91.80;;;;;;5059225;28;20047;-73
2023/05/05 03:38:33;;;;;;;1999.90;999.90;;;10.00;91.80;;;;;;5055189;28;20464;-72
2023/05/05 03:41:02;;;;;;;1999.90;999.90;;;10.00;91.80;;;;;;5061773;28;20060;-72
2023/05/05 03:43:28;;;;;;;1999.90;999.90;;;10.10;91.60;;;;;;5057712;28;20371;-72
2023/05/05 03:45:54;;;;;;;1999.90;999.90;;;10.10;91.50;;;;;;5087332;28;20029;-72
2023/05/05 03:48:20;;;;;;;1999.90;999.90;;;10.10;91.30;;;;;;5084487;28;20028;-72
2023/05/05 03:50:45;;;;;;;1999.90;999.90;;;10.10;91.20;;;;;;5086707;28;20029;-72
2023/05/05 03:53:11;;;;;;;1999.90;999.90;;;10.20;91.30;;;;;;5085764;28;20039;-72
2023/05/05 03:55:37;;;;;;;1999.90;999.90;;;10.30;91.20;;;;;;5065191;28;20036;-71
2023/05/05 03:58:02;;;;;;;1999.90;999.90;;;10.50;90.90;;;;;;5070958;28;20078;-73
2023/05/05 04:00:28;;;;;;;1999.90;999.90;;;10.50;90.90;;;;;;5070644;28;20408;-74
2023/05/05 04:02:54;;;;;;;1999.90;999.90;;;10.60;90.70;;;;;;5056589;28;20040;-74
2023/05/05 04:05:21;;;;;;;1999.90;999.90;;;10.60;90.60;;;;;;5075102;28;20075;-74
2023/05/05 04:07:47;;;;;;;1999.90;999.90;;;10.60;90.70;;;;;;5076264;28;20059;-74
2023/05/05 04:10:13;;;;;;;1999.90;999.90;;;10.60;90.70;;;;;;5056202;28;20028;-74
2023/05/05 04:12:38;;;;;;;1999.90;999.90;;;10.60;90.70;;;;;;5066996;28;20033;-74
2023/05/05 04:15:05;;;;;;;1999.90;999.90;;;10.50;90.80;;;;;;5071247;28;20044;-75
2023/05/05 04:17:31;;;;;;;1999.90;999.90;;;10.60;90.80;;;;;;5056084;28;20474;-74
2023/05/05 04:19:57;;;;;;;1999.90;999.90;;;10.60;90.80;;;;;;5035855;28;20067;-74
2023/05/05 04:22:22;;;;;;;1999.90;999.90;;;10.70;90.60;;;;;;5053290;28;20081;-75
2023/05/05 04:24:48;;;;;;;1999.90;999.90;;;10.80;90.90;;;;;;5050608;28;20057;-74
2023/05/05 04:27:13;;;;;;;1999.90;999.90;;;10.90;90.40;;;;;;5069236;28;20094;-75
2023/05/05 04:29:39;;;;;;;1999.90;999.90;;;11.00;90.40;;;;;;5072899;28;20029;-73
2023/05/05 04:32:05;;;;;;;1999.90;999.90;;;11.20;90.20;;;;;;5075000;28;20036;-72
2023/05/05 04:34:31;;;;;;;1999.90;999.90;;;11.30;89.90;;;;;;5069575;28;20478;-76
2023/05/05 04:36:57;;;;;;;1999.90;999.90;;;11.40;89.50;;;;;;5080311;28;20033;-76
2023/05/05 04:39:22;;;;;;;1999.90;999.90;;;11.50;89.30;;;;;;5050652;28;20024;-78
2023/05/05 04:41:48;;;;;;;1999.90;999.90;;;11.50;88.90;;;;;;5037676;28;20036;-78
2023/05/05 04:44:14;;;;;;;1999.90;999.90;;;11.50;89.00;;;;;;5034906;28;20169;-78
2023/05/05 04:46:40;;;;;;;1999.90;999.90;;;11.60;88.90;;;;;;5074225;28;20130;-77
2023/05/05 04:49:05;;;;;;;1999.90;999.90;;;11.60;88.90;;;;;;5032500;28;20028;-76
2023/05/05 04:51:31;;;;;;;1999.90;999.90;;;11.60;89.10;;;;;;5070653;28;20029;-77
2023/05/05 04:53:57;;;;;;;1999.90;999.90;;;11.60;88.80;;;;;;5017009;28;20025;-77
2023/05/05 04:56:23;;;;;;;1999.90;999.90;;;11.70;88.90;;;;;;5063782;28;20047;-77
2023/05/05 04:58:49;;;;;;;1999.90;999.90;;;11.80;89.10;;;;;;5051040;28;20113;-77
2023/05/05 05:01:15;;;;;;;1999.90;999.90;;;11.80;88.70;;;;;;5071840;28;20040;-76
2023/05/05 05:03:40;;;;;;;1999.90;999.90;;;11.80;88.30;;;;;;5054112;28;20040;-76
2023/05/05 05:06:06;;;;;;;1999.90;999.90;;;11.90;88.70;;;;;;5040629;28;20024;-76
2023/05/05 05:08:32;;;;;;;1999.90;999.90;;;12.00;88.50;;;;;;5048757;28;20060;-74
2023/05/05 05:10:58;;;;;;;1999.90;999.90;;;12.10;87.50;;;;;;5078508;28;20016;-75
2023/05/05 05:13:24;;;;;;;1999.90;999.90;;;12.10;87.30;;;;;;5049716;28;20021;-74
2023/05/05 05:15:50;;;;;;;1999.90;999.90;;;12.20;87.20;;;;;;5061196;28;20044;-74
2023/05/05 05:18:16;;;;;;;1999.90;999.90;;;12.40;88.00;;;;;;5037204;28;20499;-74
2023/05/05 05:20:41;;;;;;;1999.90;999.90;;;12.50;86.00;;;;;;5041379;28;20059;-74
2023/05/05 05:23:07;;;;;;;1999.90;999.90;;;12.50;85.70;;;;;;5044193;28;20044;-77
2023/05/05 05:25:33;;;;;;;1999.90;999.90;;;12.50;86.00;;;;;;5028588;28;20135;-75
2023/05/05 05:27:58;;;;;;;1999.90;999.90;;;12.50;85.40;;;;;;5024561;28;20044;-74
2023/05/05 05:30:24;;;;;;;1999.90;999.90;;;12.60;85.40;;;;;;5029236;28;20100;-73
2023/05/05 05:32:50;;;;;;;1999.90;999.90;;;12.70;85.20;;;;;;5021437;28;20131;-73
2023/05/05 05:35:15;;;;;;;1999.90;999.90;;;12.70;84.50;;;;;;5027648;28;20092;-73
2023/05/05 05:37:41;;;;;;;1999.90;999.90;;;12.90;85.00;;;;;;5021120;28;20506;-75
2023/05/05 05:40:08;;;;;;;1999.90;999.90;;;12.90;84.90;;;;;;5013772;28;20470;-72
2023/05/05 05:42:34;;;;;;;1999.90;999.90;;;12.90;84.40;;;;;;5005965;28;20034;-73
2023/05/05 05:44:59;;;;;;;1999.90;999.90;;;13.00;85.10;;;;;;5019678;28;20573;-74
2023/05/05 05:47:25;;;;;;;1999.90;999.90;;;13.10;84.50;;;;;;5003694;28;20061;-73
2023/05/05 05:49:51;;;;;;;1999.90;999.90;;;13.20;83.90;;;;;;5017772;28;20025;-73
2023/05/05 05:52:16;;;;;;;1999.90;999.90;;;13.20;84.30;;;;;;5021811;28;20088;-74
2023/05/05 05:54:42;;;;;;;1999.90;999.90;;;13.20;84.20;;;;;;5021970;28;20578;-73
2023/05/05 05:57:08;;;;;;;1999.90;999.90;;;13.20;84.70;;;;;;5025889;28;20041;-74
2023/05/05 05:59:33;;;;;;;1999.90;999.90;;;13.20;85.00;;;;;;5015547;28;20034;-74
2023/05/05 06:02:00;;;;;;;1999.90;999.90;;;13.20;85.20;;;;;;5022888;28;20033;-74
2023/05/05 06:04:26;;;;;;;1999.90;999.90;;;13.20;84.60;;;;;;5022456;28;20132;-73
2023/05/05 06:06:51;;;;;;;1999.90;999.90;;;13.20;84.00;;;;;;5030864;28;20562;-73
2023/05/05 06:09:17;;;;;;;1999.90;999.90;;;13.30;83.30;;;;;;5018673;28;20130;-73
2023/05/05 06:11:44;;;;;;;1999.90;999.90;;;13.30;83.30;;;;;;5020448;28;20476;-73
2023/05/05 06:14:09;;;;;;;1999.90;999.90;;;13.40;83.40;;;;;;5020025;28;20835;-73
2023/05/05 06:16:35;;;;;;;1999.90;999.90;;;13.50;82.00;;;;;;5025194;28;20030;-73
2023/05/05 06:19:01;;;;;;;1999.90;999.90;;;13.60;82.70;;;;;;5022537;28;20452;-73
2023/05/05 06:21:26;;;;;;;1999.90;999.90;;;13.80;83.30;;;;;;5031382;28;20511;-73
2023/05/05 06:23:52;;;;;;;1999.90;999.90;;;14.00;83.30;;;;;;5022725;28;20033;-73
2023/05/05 06:26:18;;;;;;;1999.90;999.90;;;14.30;82.20;;;;;;5024238;28;20062;-73
2023/05/05 06:28:44;;;;;;;1999.90;999.90;;;14.40;82.20;;;;;;5021378;28;20363;-73
2023/05/05 06:31:11;;;;;;;1999.90;999.90;;;14.70;81.00;;;;;;5032000;28;20080;-73
2023/05/05 06:33:37;;;;;;;1999.90;999.90;;;14.80;80.00;;;;;;5026189;28;20057;-74
2023/05/05 06:36:03;;;;;;;1999.90;999.90;;;14.60;79.40;;;;;;5033429;28;20056;-74
2023/05/05 06:38:28;;;;;;;1999.90;999.90;;;14.90;79.70;;;;;;5027298;28;20063;-73
2023/05/05 06:40:54;;;;;;;1999.90;999.90;;;15.10;78.90;;;;;;5025031;28;20038;-74
2023/05/05 06:43:20;;;;;;;1999.90;999.90;;;15.20;77.70;;;;;;5027462;28;20038;-74
2023/05/05 06:45:46;;;;;;;1999.90;999.90;;;15.40;77.60;;;;;;5026017;28;20060;-74
2023/05/05 06:48:12;;;;;;;1999.90;999.90;;;15.60;76.30;;;;;;5021646;28;20057;-74
2023/05/05 06:50:37;;;;;;;1999.90;999.90;;;15.70;75.10;;;;;;5024299;28;20029;-74
2023/05/05 06:53:04;;;;;;;1999.90;999.90;;;15.90;74.30;;;;;;5023167;28;20033;-75
2023/05/05 06:55:30;;;;;;;1999.90;999.90;;;16.10;74.60;;;;;;5019968;28;20084;-74
2023/05/05 06:57:56;;;;;;;1999.90;999.90;;;16.40;75.00;;;;;;5024961;28;20025;-75
2023/05/05 07:00:22;;;;;;;1999.90;999.90;;;16.50;74.10;;;;;;5007115;28;20033;-75
2023/05/05 07:02:48;;;;;;;1999.90;999.90;;;16.50;74.20;;;;;;5023867;28;20041;-75
2023/05/05 07:05:13;;;;;;;1999.90;999.90;;;16.40;72.40;;;;;;5029559;28;20029;-75
2023/05/05 07:07:52;;;;;;;1999.90;999.90;;;16.40;72.40;;;;;;5029753;28;20048;-76
2023/05/05 07:10:18;;;;;;;1999.90;999.90;;;16.50;73.00;;;;;;5022530;28;20096;-76
2023/05/05 07:12:45;;;;;;;1999.90;999.90;;;16.60;71.60;;;;;;5021029;28;20044;-76
2023/05/05 07:15:11;;;;;;;1999.90;999.90;;;16.70;71.60;;;;;;5022178;28;20480;-75
2023/05/05 07:17:36;;;;;;;1999.90;999.90;;;16.80;72.90;;;;;;5024756;28;20108;-76
2023/05/05 07:20:02;;;;;;;1999.90;999.90;;;16.90;72.80;;;;;;5010028;28;20108;-76
2023/05/05 07:22:28;;;;;;;1999.90;999.90;;;17.20;72.60;;;;;;5018986;28;20451;-75
2023/05/05 07:24:53;;;;;;;1999.90;999.90;;;17.50;70.20;;;;;;5037395;28;20139;-75
2023/05/05 07:27:20;;;;;;;1999.90;999.90;;;17.60;70.50;;;;;;5068827;28;20028;-75
2023/05/05 07:29:45;;;;;;;1999.90;999.90;;;17.50;70.20;;;;;;5067144;28;20401;-75
2023/05/05 07:32:12;;;;;;;1999.90;999.90;;;17.80;71.10;;;;;;5060976;28;20033;-75
2023/05/05 07:34:39;;;;;;;1999.90;999.90;;;17.90;71.90;;;;;;5060316;28;20056;-76
2023/05/05 07:37:05;;;;;;;1999.90;999.90;;;17.80;70.10;;;;;;5062452;28;20079;-75
2023/05/05 07:39:32;;;;;;;1999.90;999.90;;;18.20;71.20;;;;;;5065619;28;20016;-76
2023/05/05 07:41:57;;;;;;;1999.90;999.90;;;18.40;68.70;;;;;;5035438;28;20052;-76
2023/05/05 07:44:23;;;;;;;1999.90;999.90;;;18.80;68.70;;;;;;5055151;28;20059;-75
2023/05/05 07:46:49;;;;;;;1999.90;999.90;;;19.60;69.20;;;;;;5065802;28;20553;-75
2023/05/05 07:49:15;;;;;;;1999.90;999.90;;;20.30;66.00;;;;;;5065756;28;20035;-75
2023/05/05 07:51:41;;;;;;;1999.90;999.90;;;20.50;64.50;;;;;;5059370;28;20029;-76
2023/05/05 07:54:07;;;;;;;1999.90;999.90;;;20.50;66.90;;;;;;5039213;28;20124;-76
2023/05/05 07:56:32;;;;;;;1999.90;999.90;;;20.90;60.00;;;;;;5067468;28;20108;-76
2023/05/05 07:58:58;;;;;;;1999.90;999.90;;;20.60;56.10;;;;;;5069943;28;20486;-76
2023/05/05 08:01:24;;;;;;;1999.90;999.90;;;20.60;52.80;;;;;;5069043;28;20038;-75
2023/05/05 08:03:50;;;;;;;1999.90;999.90;;;20.40;55.20;;;;;;5071842;28;20028;-76
2023/05/05 08:06:20;;;;;;;1999.90;999.90;;;20.40;52.40;;;;;;5073580;28;20028;-76
2023/05/05 08:08:49;;;;;;;1999.90;999.90;;;20.50;51.30;;;;;;5069312;28;20041;-75
2023/05/05 08:11:15;;;;;;;1999.90;999.90;;;20.70;53.00;;;;;;5062849;28;20043;-76
2023/05/05 08:13:44;;;;;;;1999.90;999.90;;;20.50;54.00;;;;;;5060411;28;20036;-76
2023/05/05 08:16:11;;;;;;;1999.90;999.90;;;20.40;52.80;;;;;;5042821;28;20079;-76
2023/05/05 08:18:37;;;;;;;1999.90;999.90;;;20.40;52.60;;;;;;5060475;28;20033;-76
2023/05/05 08:21:10;;;;;;;1999.90;999.90;;;20.40;53.10;;;;;;5059622;28;20380;-75
2023/05/05 08:23:37;;;;;;;1999.90;999.90;;;20.40;52.80;;;;;;5045600;28;20056;-76
2023/05/05 08:26:08;;;;;;;1999.90;999.90;;;20.60;55.80;;;;;;5061332;28;20051;-76
2023/05/05 08:28:35;;;;;;;1999.90;999.90;;;20.50;52.40;;;;;;5060001;28;20108;-76
2023/05/05 08:31:01;;;;;;;1999.90;999.90;;;20.50;52.40;;;;;;5048245;28;20033;-75
2023/05/05 08:33:27;;;;;;;1999.90;999.90;;;20.80;52.60;;;;;;5065884;28;20036;-75
2023/05/05 08:35:52;;;;;;;1999.90;999.90;;;20.90;52.40;;;;;;5034226;28;20578;-76
2023/05/05 08:38:18;;;;;;;1999.90;999.90;;;20.80;52.80;;;;;;5042038;28;20033;-75
2023/05/05 08:40:44;;;;;;;1999.90;999.90;;;20.30;53.50;;;;;;5052276;28;20043;-75
2023/05/05 08:43:10;;;;;;;1999.90;999.90;;;20.00;54.80;;;;;;5065431;28;20056;-75
2023/05/05 08:45:38;;;;;;;1999.90;999.90;;;20.00;56.10;;;;;;5046067;28;20170;-76
2023/05/05 08:48:04;;;;;;;1999.90;999.90;;;19.90;57.30;;;;;;5063277;28;20040;-76
2023/05/05 08:50:31;;;;;;;1999.90;999.90;;;20.00;55.70;;;;;;5064565;28;20037;-76
2023/05/05 08:53:09;;;;;;;1999.90;999.90;;;20.20;57.00;;;;;;5032417;28;20033;-76
2023/05/05 08:55:50;;;;;;;1999.90;999.90;;;20.20;56.30;;;;;;5063671;28;20028;-76
2023/05/05 08:58:16;;;;;;;;;;;20.00;56.60;;;;;;5063171;28;20024;-76
2023/05/05 09:00:44;;;;;;;1999.90;999.90;;;20.20;56.00;;;;;;5062610;28;19938;-76
2023/05/05 09:03:11;;;;;;;1999.90;999.90;;;20.50;55.20;;;;;;5065673;28;20127;-75
2023/05/05 09:05:36;;;;;;;1999.90;999.90;;;20.80;56.50;;;;;;5045043;28;20032;-76
2023/05/05 09:08:05;;;;;;;1999.90;999.90;;;21.00;57.40;;;;;;5063903;28;20033;-76
2023/05/05 09:10:32;;;;;;;1999.90;999.90;;;21.10;54.50;;;;;;5037265;28;20032;-76
2023/05/05 09:12:58;;;;;;;1999.90;999.90;;;20.80;54.10;;;;;;5043242;28;20040;-76
2023/05/05 09:15:23;;;;;;;1999.90;999.90;;;21.00;53.20;;;;;;5061951;28;20040;-76
2023/05/05 09:17:49;;;;;;;1999.90;999.90;;;21.30;52.80;;;;;;5052565;28;20035;-76
2023/05/05 09:20:15;;;;;;;1999.90;999.90;;;21.60;53.00;;;;;;5063463;28;20494;-76
2023/05/05 09:22:46;;;;;;;1999.90;999.90;;;21.90;51.30;;;;;;5069498;28;20024;-76
2023/05/05 09:25:13;;;;;;;1999.90;999.90;;;21.80;50.40;;;;;;5048186;28;20518;-76
2023/05/05 09:27:45;;;;;;;1999.90;999.90;;;21.70;50.70;;;;;;5075190;28;20032;-76
2023/05/05 09:30:21;;;;;;;1999.90;999.90;;;21.50;51.20;;;;;;5069813;28;20158;-76
2023/05/05 09:32:52;;;;;;;1999.90;999.90;;;21.80;52.60;;;;;;5053247;28;20063;-76
2023/05/05 09:35:19;;;;;;;1999.90;999.90;;;22.00;50.40;;;;;;5054537;28;20037;-76
2023/05/05 09:37:46;;;;;;;1999.90;999.90;;;22.10;50.60;;;;;;5072507;28;20051;-76
2023/05/05 09:40:17;;;;;;;1999.90;999.90;;;22.00;50.10;;;;;;5053129;28;20118;-76
2023/05/05 09:42:46;;;;;;;1999.90;999.90;;;22.30;49.20;;;;;;5070210;28;20035;-76
2023/05/05 09:45:17;;;;;;;1999.90;999.90;;;22.10;49.10;;;;;;5069285;28;20487;-77
2023/05/05 09:47:44;;;;;;;1999.90;999.90;;;22.20;47.60;;;;;;5065792;28;20033;-76
2023/05/05 09:50:14;;;;;;;1999.90;999.90;;;22.60;47.20;;;;;;5054523;28;20083;-76
2023/05/05 09:52:41;;;;;;;1999.90;999.90;;;22.90;45.60;;;;;;5066632;28;20024;-76
2023/05/05 09:55:16;;;;;;;1999.90;999.90;;;23.10;46.80;;;;;;5053606;28;20032;-76
2023/05/05 09:57:42;;;;;;;1999.90;999.90;;;23.00;48.10;;;;;;5056836;28;20070;-76
2023/05/05 10:00:09;;;;;;;1999.90;999.90;;;23.30;47.60;;;;;;5042071;28;20052;-76
2023/05/05 10:02:38;;;;;;;1999.90;999.90;;;23.80;45.80;;;;;;5049249;28;20132;-76
2023/05/05 10:05:22;;;;;;;1999.90;999.90;;;24.20;43.40;;;;;;5051989;28;20067;-76
2023/05/05 10:07:47;;;;;;;1999.90;999.90;;;24.20;45.00;;;;;;5053088;28;20577;-76
2023/05/05 10:10:15;;;;;;;1999.90;999.90;;;24.70;46.60;;;;;;5062631;28;20116;-76
2023/05/05 10:12:41;;;;;;;1999.90;999.90;;;24.60;43.50;;;;;;5063443;28;20055;-77
2023/05/05 10:15:08;;;;;;;1999.90;999.90;;;25.00;45.50;;;;;;5059661;28;20032;-76
2023/05/05 10:17:46;;;;;;;1999.90;999.90;;;24.50;43.00;;;;;;5055097;28;20041;-77
2023/05/05 10:20:13;;;;;;;1999.90;999.90;;;24.70;44.40;;;;;;5066590;28;20364;-76
2023/05/05 10:22:44;;;;;;;1999.90;999.90;;;25.10;42.10;;;;;;5043572;28;20033;-76
2023/05/05 10:25:12;;;;;;;1999.90;999.90;;;25.20;43.00;;;;;;5066160;28;20044;-76
2023/05/05 10:27:45;;;;;;;1999.90;999.90;;;24.90;42.60;;;;;;5069368;28;20021;-76
2023/05/05 10:30:28;;;;;;;1999.90;999.90;;;24.80;42.70;;;;;;5071920;28;20048;-76
2023/05/05 10:33:13;;;;;;;1999.90;999.90;;;25.00;39.80;;;;;;5075501;28;20032;-76
2023/05/05 10:35:42;;;;;;;1999.90;999.90;;;25.40;44.80;;;;;;5037752;28;20067;-76
2023/05/05 10:38:10;;;;;;;1999.90;999.90;;;25.60;41.00;;;;;;5061912;28;20035;-76
2023/05/05 10:40:35;;;;;;;1999.90;999.90;;;25.80;40.10;;;;;;5065297;28;20462;-76
2023/05/05 10:43:01;;;;;;;1999.90;999.90;;;26.30;39.20;;;;;;5059007;28;20104;-76
2023/05/05 10:45:27;;;;;;;1999.90;999.90;;;27.00;42.80;;;;;;5055495;28;20535;-76
2023/05/05 10:47:55;;;;;;;1999.90;999.90;;;26.90;38.70;;;;;;5071336;28;20021;-76
2023/05/05 10:50:24;;;;;;;1999.90;999.90;;;26.90;39.90;;;;;;5035493;28;20032;-77
2023/05/05 10:53:08;;;;;;;1999.90;999.90;;;27.70;37.80;;;;;;5073050;28;20024;-77
2023/05/05 10:55:55;;;;;;;1999.90;999.90;;;27.70;36.10;;;;;;5065054;28;20024;-76
2023/05/05 10:58:38;;;;;;;1999.90;999.90;;;27.50;38.80;;;;;;5074675;28;20028;-76
2023/05/05 11:01:05;;;;;;;1999.90;999.90;;;26.40;39.00;;;;;;5057248;28;20052;-76
2023/05/05 11:03:31;;;;;;;1999.90;999.90;;;27.20;37.80;;;;;;5074077;28;20032;-77
2023/05/05 11:06:03;;;;;;;1999.90;999.90;;;26.90;37.70;;;;;;5074974;28;20024;-77
2023/05/05 11:08:31;;;;;;;1999.90;999.90;;;27.00;39.00;;;;;;5080083;28;20501;-76
2023/05/05 11:10:57;;;;;;;1999.90;999.90;;;27.40;39.10;;;;;;5062794;28;20092;-76
2023/05/05 11:13:22;;;;;;;1999.90;999.90;;;27.30;39.30;;;;;;5078331;28;20107;-76
2023/05/05 11:15:50;;;;;;;1999.90;999.90;;;26.70;39.90;;;;;;5041729;28;20031;-76
2023/05/05 11:18:36;;;;;;;1999.90;999.90;;;27.00;37.70;;;;;;5077602;28;20033;-76
2023/05/05 11:21:03;;;;;;;1999.90;999.90;;;26.90;41.30;;;;;;5069413;28;20025;-76
2023/05/05 11:23:29;;;;;;;1999.90;999.90;;;26.90;39.20;;;;;;5052179;28;20040;-76
2023/05/05 11:25:56;;;;;;;1999.90;999.90;;;27.10;38.00;;;;;;5068233;28;20087;-76
2023/05/05 11:28:31;;;;;;;1999.90;999.90;;;27.30;39.20;;;;;;5074631;28;20064;-76
2023/05/05 11:30:59;;;;;;;1999.90;999.90;;;26.00;40.10;;;;;;5067656;28;20063;-76
2023/05/05 11:33:29;;;;;;;1999.90;999.90;;;26.50;39.60;;;;;;5076565;28;20047;-76
2023/05/05 11:35:58;;;;;;;1999.90;999.90;;;27.20;37.10;;;;;;5071585;28;20048;-76
2023/05/05 11:38:46;;;;;;;1999.90;999.90;;;27.40;38.20;;;;;;5073979;28;20024;-76
2023/05/05 11:41:32;;;;;;;1999.90;999.90;;;26.90;39.10;;;;;;5039994;28;20037;-76
2023/05/05 11:44:17;;;;;;;1999.90;999.90;;;26.30;39.50;;;;;;5070536;28;20113;-77
2023/05/05 11:46:52;;;;;;;1999.90;999.90;;;27.20;41.00;;;;;;5071951;28;20161;-76
2023/05/05 11:49:25;;;;;;;1999.90;999.90;;;27.70;36.80;;;;;;5066296;28;20052;-76
2023/05/05 11:51:59;;;;;;;1999.90;999.90;;;27.90;37.00;;;;;;5049448;28;20124;-76
2023/05/05 11:54:25;;;;;;;1999.90;999.90;;;27.30;38.90;;;;;;5068645;28;20039;-76
2023/05/05 11:56:53;;;;;;;1999.90;999.90;;;27.90;36.50;;;;;;5052546;28;20112;-76
2023/05/05 11:59:19;;;;;;;1999.90;999.90;;;28.40;36.40;;;;;;5052866;28;20029;-76
2023/05/05 12:01:44;;;;;;;1999.90;999.90;;;28.40;35.50;;;;;;5055204;28;20399;-76
2023/05/05 12:04:14;;;;;;;1999.90;999.90;;;27.30;37.20;;;;;;5066142;28;20495;-76
2023/05/05 12:06:41;;;;;;;1999.90;999.90;;;28.20;37.20;;;;;;5074209;28;20114;-76
2023/05/05 12:09:17;;;;;;;1999.90;999.90;;;29.00;34.50;;;;;;5038680;28;20502;-76